Asiatic Wave — 9V8790 — position and weather

sailwx.info

Track history (hours):
 
Tides and Currents Weather Stations Pressure Air Temp Water Temp Dewpoint Dewpoint Depression Visibility Wind Speed Wind Dir Waves Ship Positions

Asiatic Wave

Last reported at 2016-May-24 22:29 UTC. Time now 2016-May-25 01:23 UTC.
Position N 31°05' E 122°41'.

Length 148 m; draft 7 m.

Type: Ship. MMSI: 564211000.

Date/timePositionNaut miles runAvg speedWind from/ knotsBaromVisibWave heightAir tempDewpointWater temp
2016-May-24 22:29N 31°05' E 122°41'1515.7
2016-May-24 21:33N 31°05' E 122°24'1514.5
2016-May-24 20:30N 31°12' E 122°08'1313.5
2016-May-24 19:33N 31°16' E 121°53'1211.6
2016-May-24 18:32N 31°20' E 121°40'0 0.0
2016-May-24 16:27N 31°20' E 121°40'0 0.0
2016-May-24 15:26N 31°20' E 121°40'0 0.0
2016-May-24 14:28N 31°20' E 121°40'0 0.0
2016-May-24 13:28N 31°20' E 121°40'0 0.0
2016-May-24 12:34N 31°20' E 121°40'0 0.0
2016-May-24 10:30N 31°20' E 121°40'0 0.0
2016-May-24 09:33N 31°20' E 121°40'0 0.0
2016-May-24 08:33N 31°20' E 121°40'0 0.0
2016-May-24 07:33N 31°20' E 121°40'0 0.0
2016-May-24 06:27N 31°20' E 121°40'0 0.0
2016-May-24 05:33N 31°20' E 121°40'4 4.3
2016-May-24 04:33N 31°17' E 121°44'1212.1
2016-May-24 03:33N 31°08' E 121°54'1110.7
2016-May-24 02:33N 31°04' E 122°05'  
2016-May-20 07:33N 34°37' E 134°57'1615.9
2016-May-20 06:34N 34°38' E 135°16'2 1.1
2016-May-20 04:29N 34°40' E 135°14'0 0.0
2016-May-20 03:29N 34°40' E 135°14'0 0.0
2016-May-20 02:23N 34°40' E 135°14'0 0.1
2016-May-20 01:28N 34°40' E 135°14'0 0.1
2016-May-20 00:28N 34°40' E 135°14'0 0.0
2016-May-19 23:33N 34°40' E 135°14'0 0.0
2016-May-19 22:33N 34°40' E 135°14'7 6.6
2016-May-19 21:33N 34°37' E 135°21'4 4.0
2016-May-19 20:33N 34°39' E 135°26'0 0.0
2016-May-19 19:11N 34°39' E 135°26'0 0.0
2016-May-19 18:29N 34°39' E 135°26'0 0.0
2016-May-19 17:28N 34°39' E 135°26'0 0.0
2016-May-19 16:29N 34°39' E 135°26'0 0.1
2016-May-19 15:32N 34°39' E 135°26'0 0.0
2016-May-19 14:14N 34°39' E 135°26'0 0.0
2016-May-19 13:32N 34°39' E 135°26'0 0.1
2016-May-19 12:31N 34°39' E 135°26'0 0.1
2016-May-19 11:31N 34°39' E 135°26'0 0.0
2016-May-19 10:30N 34°39' E 135°26'0 0.0
2016-May-19 09:28N 34°39' E 135°26'0 0.1
2016-May-19 08:33N 34°39' E 135°26'1110.8
2016-May-19 07:33N 34°35' E 135°13'1717.4
2016-May-19 06:33N 34°35' E 134°52'61416.6
2016-May-17 17:31N 31°19' E 123°19'1817.7
2016-May-17 16:29N 31°12' E 122°60'1617.5
2016-May-17 15:33N 31°06' E 122°42'1614.5
2016-May-17 14:27N 31°06' E 122°23'2612.5
2016-May-17 12:24N 31°16' E 121°55'1213.7
2016-May-17 11:33N 31°20' E 121°42'6 5.0
2016-May-17 10:17N 31°22' E 121°36'0 0.0
2016-May-17 09:17N 31°22' E 121°36'0 0.0
2016-May-17 08:16N 31°22' E 121°36'0 0.0
2016-May-17 07:28N 31°22' E 121°36'0 0.0
2016-May-17 06:28N 31°22' E 121°36'0 0.0
2016-May-17 05:27N 31°22' E 121°36'0 0.0
2016-May-17 04:33N 31°22' E 121°36'0 0.0
2016-May-17 03:29N 31°22' E 121°36'0 0.0
2016-May-17 02:26N 31°22' E 121°36'0 0.1
2016-May-17 01:25N 31°22' E 121°36'0 0.0
2016-May-17 00:31N 31°22' E 121°36'0 0.0
2016-May-16 23:12N 31°22' E 121°36'0 0.0
2016-May-16 21:12N 31°22' E 121°36'0 0.0
2016-May-16 20:27N 31°22' E 121°36'2 2.2
2016-May-16 19:24N 31°22' E 121°38'6 6.9
2016-May-16 18:30N 31°19' E 121°45'1110.8
2016-May-16 17:27N 31°15' E 121°57'2612.7
2016-May-16 15:23N 31°07' E 122°27'8 8.8
2016-May-16 14:28N 31°07' E 122°36'11 8.4
2016-May-16 13:10N 31°07' E 122°49'  
Track history (hours):
 
Tides and Currents Weather Stations Pressure Air Temp Water Temp Dewpoint Dewpoint Depression Visibility Wind Speed Wind Dir Waves Ship Positions

Asiatic Wave

Last reported at 2016-May-24 22:29 UTC. Time now 2016-May-25 01:23 UTC.
Position N 31°05' E 122°41'.

Length 148 m; draft 7 m.

Type: Ship. MMSI: 564211000.

Date/timePositionNaut miles runAvg speedWind from/ knotsBaromVisibWave heightAir tempDewpointWater temp
2016-May-24 22:29N 31°05' E 122°41'1515.7
2016-May-24 21:33N 31°05' E 122°24'1514.5
2016-May-24 20:30N 31°12' E 122°08'1313.5
2016-May-24 19:33N 31°16' E 121°53'1211.6
2016-May-24 18:32N 31°20' E 121°40'0 0.0
2016-May-24 16:27N 31°20' E 121°40'0 0.0
2016-May-24 15:26N 31°20' E 121°40'0 0.0
2016-May-24 14:28N 31°20' E 121°40'0 0.0
2016-May-24 13:28N 31°20' E 121°40'0 0.0
2016-May-24 12:34N 31°20' E 121°40'0 0.0
2016-May-24 10:30N 31°20' E 121°40'0 0.0
2016-May-24 09:33N 31°20' E 121°40'0 0.0
2016-May-24 08:33N 31°20' E 121°40'0 0.0
2016-May-24 07:33N 31°20' E 121°40'0 0.0
2016-May-24 06:27N 31°20' E 121°40'0 0.0
2016-May-24 05:33N 31°20' E 121°40'4 4.3
2016-May-24 04:33N 31°17' E 121°44'1212.1
2016-May-24 03:33N 31°08' E 121°54'1110.7
2016-May-24 02:33N 31°04' E 122°05'  
2016-May-20 07:33N 34°37' E 134°57'1615.9
2016-May-20 06:34N 34°38' E 135°16'2 1.1
2016-May-20 04:29N 34°40' E 135°14'0 0.0
2016-May-20 03:29N 34°40' E 135°14'0 0.0
2016-May-20 02:23N 34°40' E 135°14'0 0.1
2016-May-20 01:28N 34°40' E 135°14'0 0.1
2016-May-20 00:28N 34°40' E 135°14'0 0.0
2016-May-19 23:33N 34°40' E 135°14'0 0.0
2016-May-19 22:33N 34°40' E 135°14'7 6.6
2016-May-19 21:33N 34°37' E 135°21'4 4.0
2016-May-19 20:33N 34°39' E 135°26'0 0.0
2016-May-19 19:11N 34°39' E 135°26'0 0.0
2016-May-19 18:29N 34°39' E 135°26'0 0.0
2016-May-19 17:28N 34°39' E 135°26'0 0.0
2016-May-19 16:29N 34°39' E 135°26'0 0.1
2016-May-19 15:32N 34°39' E 135°26'0 0.0
2016-May-19 14:14N 34°39' E 135°26'0 0.0
2016-May-19 13:32N 34°39' E 135°26'0 0.1
2016-May-19 12:31N 34°39' E 135°26'0 0.1
2016-May-19 11:31N 34°39' E 135°26'0 0.0
2016-May-19 10:30N 34°39' E 135°26'0 0.0
2016-May-19 09:28N 34°39' E 135°26'0 0.1
2016-May-19 08:33N 34°39' E 135°26'1110.8
2016-May-19 07:33N 34°35' E 135°13'1717.4
2016-May-19 06:33N 34°35' E 134°52'61416.6
2016-May-17 17:31N 31°19' E 123°19'1817.7
2016-May-17 16:29N 31°12' E 122°60'1617.5
2016-May-17 15:33N 31°06' E 122°42'1614.5
2016-May-17 14:27N 31°06' E 122°23'2612.5
2016-May-17 12:24N 31°16' E 121°55'1213.7
2016-May-17 11:33N 31°20' E 121°42'6 5.0
2016-May-17 10:17N 31°22' E 121°36'0 0.0
2016-May-17 09:17N 31°22' E 121°36'0 0.0
2016-May-17 08:16N 31°22' E 121°36'0 0.0
2016-May-17 07:28N 31°22' E 121°36'0 0.0
2016-May-17 06:28N 31°22' E 121°36'0 0.0
2016-May-17 05:27N 31°22' E 121°36'0 0.0
2016-May-17 04:33N 31°22' E 121°36'0 0.0
2016-May-17 03:29N 31°22' E 121°36'0 0.0
2016-May-17 02:26N 31°22' E 121°36'0 0.1
2016-May-17 01:25N 31°22' E 121°36'0 0.0
2016-May-17 00:31N 31°22' E 121°36'0 0.0
2016-May-16 23:12N 31°22' E 121°36'0 0.0
2016-May-16 21:12N 31°22' E 121°36'0 0.0
2016-May-16 20:27N 31°22' E 121°36'2 2.2
2016-May-16 19:24N 31°22' E 121°38'6 6.9
2016-May-16 18:30N 31°19' E 121°45'1110.8
2016-May-16 17:27N 31°15' E 121°57'2612.7
2016-May-16 15:23N 31°07' E 122°27'8 8.8
2016-May-16 14:28N 31°07' E 122°36'11 8.4
2016-May-16 13:10N 31°07' E 122°49'  

Dump ship's entire track history